sensor_id;sensor_type;location;lat;lon;timestamp;temperature;humidity
18177;DHT22;9213;50.858;3.964;2022-12-24T00:01:33;14.40;62.20
18177;DHT22;9213;50.858;3.964;2022-12-24T00:04:00;14.40;62.20
18177;DHT22;9213;50.858;3.964;2022-12-24T00:06:27;14.50;62.40
18177;DHT22;9213;50.858;3.964;2022-12-24T00:08:54;14.50;62.40
18177;DHT22;9213;50.858;3.964;2022-12-24T00:11:21;14.60;62.50
18177;DHT22;9213;50.858;3.964;2022-12-24T00:13:49;14.60;62.60
18177;DHT22;9213;50.858;3.964;2022-12-24T00:16:16;14.60;62.80
18177;DHT22;9213;50.858;3.964;2022-12-24T00:18:43;14.60;62.90
18177;DHT22;9213;50.858;3.964;2022-12-24T00:21:10;14.50;63.10
18177;DHT22;9213;50.858;3.964;2022-12-24T00:23:37;14.50;63.20
18177;DHT22;9213;50.858;3.964;2022-12-24T00:26:04;14.50;63.30
18177;DHT22;9213;50.858;3.964;2022-12-24T00:28:31;14.50;63.50
18177;DHT22;9213;50.858;3.964;2022-12-24T00:30:59;14.50;63.60
18177;DHT22;9213;50.858;3.964;2022-12-24T00:33:26;14.50;63.80
18177;DHT22;9213;50.858;3.964;2022-12-24T00:35:53;14.50;64.80
18177;DHT22;9213;50.858;3.964;2022-12-24T00:38:19;14.40;64.10
18177;DHT22;9213;50.858;3.964;2022-12-24T00:40:46;14.40;64.30
18177;DHT22;9213;50.858;3.964;2022-12-24T00:43:13;14.40;64.40
18177;DHT22;9213;50.858;3.964;2022-12-24T00:45:43;14.40;64.50
18177;DHT22;9213;50.858;3.964;2022-12-24T00:48:11;14.40;64.50
18177;DHT22;9213;50.858;3.964;2022-12-24T00:50:38;14.40;64.60
18177;DHT22;9213;50.858;3.964;2022-12-24T00:53:05;14.40;64.60
18177;DHT22;9213;50.858;3.964;2022-12-24T00:55:32;14.40;64.60
18177;DHT22;9213;50.858;3.964;2022-12-24T00:57:59;14.50;64.70
18177;DHT22;9213;50.858;3.964;2022-12-24T01:00:26;14.50;64.70
18177;DHT22;9213;50.858;3.964;2022-12-24T01:02:52;14.50;64.70
18177;DHT22;9213;50.858;3.964;2022-12-24T01:05:21;14.50;64.80
18177;DHT22;9213;50.858;3.964;2022-12-24T01:07:48;14.40;64.80
18177;DHT22;9213;50.858;3.964;2022-12-24T01:10:15;14.40;65.00
18177;DHT22;9213;50.858;3.964;2022-12-24T01:12:43;14.40;65.20
18177;DHT22;9213;50.858;3.964;2022-12-24T01:15:11;14.40;65.40
18177;DHT22;9213;50.858;3.964;2022-12-24T01:17:38;14.40;65.50
18177;DHT22;9213;50.858;3.964;2022-12-24T01:20:10;14.40;65.60
18177;DHT22;9213;50.858;3.964;2022-12-24T01:22:40;14.40;65.70
18177;DHT22;9213;50.858;3.964;2022-12-24T01:25:07;14.40;65.70
18177;DHT22;9213;50.858;3.964;2022-12-24T01:27:34;14.40;65.70
18177;DHT22;9213;50.858;3.964;2022-12-24T01:30:01;14.40;65.70
18177;DHT22;9213;50.858;3.964;2022-12-24T01:32:28;14.40;65.70
18177;DHT22;9213;50.858;3.964;2022-12-24T01:34:55;14.40;65.50
18177;DHT22;9213;50.858;3.964;2022-12-24T01:37:22;14.40;65.40
18177;DHT22;9213;50.858;3.964;2022-12-24T01:39:50;14.50;65.40
18177;DHT22;9213;50.858;3.964;2022-12-24T01:42:38;14.50;65.40
18177;DHT22;9213;50.858;3.964;2022-12-24T01:45:46;14.50;65.10
18177;DHT22;9213;50.858;3.964;2022-12-24T01:48:33;14.50;65.00
18177;DHT22;9213;50.858;3.964;2022-12-24T01:51:06;14.50;65.30
18177;DHT22;9213;50.858;3.964;2022-12-24T01:53:36;14.50;65.00
18177;DHT22;9213;50.858;3.964;2022-12-24T01:56:06;14.50;65.10
18177;DHT22;9213;50.858;3.964;2022-12-24T01:58:36;14.50;65.20
18177;DHT22;9213;50.858;3.964;2022-12-24T02:01:04;14.50;65.20
18177;DHT22;9213;50.858;3.964;2022-12-24T02:03:31;14.50;65.10
18177;DHT22;9213;50.858;3.964;2022-12-24T02:05:59;14.50;65.10
18177;DHT22;9213;50.858;3.964;2022-12-24T02:08:26;14.50;65.20
18177;DHT22;9213;50.858;3.964;2022-12-24T02:11:11;14.50;65.10
18177;DHT22;9213;50.858;3.964;2022-12-24T02:13:38;14.60;65.10
18177;DHT22;9213;50.858;3.964;2022-12-24T02:16:13;14.50;65.00
18177;DHT22;9213;50.858;3.964;2022-12-24T02:18:49;14.60;65.10
18177;DHT22;9213;50.858;3.964;2022-12-24T02:21:56;14.60;65.10
18177;DHT22;9213;50.858;3.964;2022-12-24T02:24:56;14.60;65.10
18177;DHT22;9213;50.858;3.964;2022-12-24T02:27:41;14.60;65.00
18177;DHT22;9213;50.858;3.964;2022-12-24T02:30:14;14.60;64.90
18177;DHT22;9213;50.858;3.964;2022-12-24T02:32:55;14.50;64.90
18177;DHT22;9213;50.858;3.964;2022-12-24T02:35:32;14.60;65.10
18177;DHT22;9213;50.858;3.964;2022-12-24T02:38:04;14.60;64.90
18177;DHT22;9213;50.858;3.964;2022-12-24T02:40:35;14.60;64.70
18177;DHT22;9213;50.858;3.964;2022-12-24T02:43:07;14.60;64.70
18177;DHT22;9213;50.858;3.964;2022-12-24T02:45:38;14.60;64.60
18177;DHT22;9213;50.858;3.964;2022-12-24T02:48:06;14.60;64.50
18177;DHT22;9213;50.858;3.964;2022-12-24T02:50:34;14.60;64.40
18177;DHT22;9213;50.858;3.964;2022-12-24T02:53:01;14.50;64.40
18177;DHT22;9213;50.858;3.964;2022-12-24T02:55:33;14.50;64.40
18177;DHT22;9213;50.858;3.964;2022-12-24T02:58:14;14.40;64.40
18177;DHT22;9213;50.858;3.964;2022-12-24T03:00:53;14.40;64.40
18177;DHT22;9213;50.858;3.964;2022-12-24T03:03:32;14.30;64.60
18177;DHT22;9213;50.858;3.964;2022-12-24T03:06:08;14.30;64.80
18177;DHT22;9213;50.858;3.964;2022-12-24T03:08:43;14.30;65.00
18177;DHT22;9213;50.858;3.964;2022-12-24T03:11:14;14.30;64.90
18177;DHT22;9213;50.858;3.964;2022-12-24T03:13:43;14.30;64.90
18177;DHT22;9213;50.858;3.964;2022-12-24T03:16:14;14.30;65.00
18177;DHT22;9213;50.858;3.964;2022-12-24T03:18:45;14.30;64.90
18177;DHT22;9213;50.858;3.964;2022-12-24T03:21:15;14.30;64.80
18177;DHT22;9213;50.858;3.964;2022-12-24T03:23:43;14.30;64.90
18177;DHT22;9213;50.858;3.964;2022-12-24T03:26:11;14.30;65.00
18177;DHT22;9213;50.858;3.964;2022-12-24T03:28:41;14.30;65.10
18177;DHT22;9213;50.858;3.964;2022-12-24T03:31:10;14.30;65.10
18177;DHT22;9213;50.858;3.964;2022-12-24T03:33:38;14.30;65.00
18177;DHT22;9213;50.858;3.964;2022-12-24T03:36:07;14.30;65.00
18177;DHT22;9213;50.858;3.964;2022-12-24T03:38:34;14.30;65.00
18177;DHT22;9213;50.858;3.964;2022-12-24T03:41:01;14.30;65.00
18177;DHT22;9213;50.858;3.964;2022-12-24T03:43:28;14.30;65.00
18177;DHT22;9213;50.858;3.964;2022-12-24T03:45:55;14.30;65.10
18177;DHT22;9213;50.858;3.964;2022-12-24T03:48:24;14.30;65.10
18177;DHT22;9213;50.858;3.964;2022-12-24T03:50:50;14.30;65.00
18177;DHT22;9213;50.858;3.964;2022-12-24T03:53:17;14.30;65.00
18177;DHT22;9213;50.858;3.964;2022-12-24T03:55:46;14.30;65.10
18177;DHT22;9213;50.858;3.964;2022-12-24T03:58:13;14.30;65.60
18177;DHT22;9213;50.858;3.964;2022-12-24T04:00:40;14.30;65.00
18177;DHT22;9213;50.858;3.964;2022-12-24T04:03:06;14.30;64.80
18177;DHT22;9213;50.858;3.964;2022-12-24T04:05:35;14.30;64.90
18177;DHT22;9213;50.858;3.964;2022-12-24T04:08:02;14.30;64.90
18177;DHT22;9213;50.858;3.964;2022-12-24T04:10:28;14.30;64.80
18177;DHT22;9213;50.858;3.964;2022-12-24T04:12:55;14.30;64.80
18177;DHT22;9213;50.858;3.964;2022-12-24T04:15:22;14.30;64.90
18177;DHT22;9213;50.858;3.964;2022-12-24T04:17:49;14.30;64.90
18177;DHT22;9213;50.858;3.964;2022-12-24T04:20:16;14.30;64.80
18177;DHT22;9213;50.858;3.964;2022-12-24T04:22:44;14.30;64.70
18177;DHT22;9213;50.858;3.964;2022-12-24T04:25:11;14.20;64.40
18177;DHT22;9213;50.858;3.964;2022-12-24T04:27:38;14.20;64.50
18177;DHT22;9213;50.858;3.964;2022-12-24T04:30:06;14.20;64.50
18177;DHT22;9213;50.858;3.964;2022-12-24T04:32:33;14.20;64.30
18177;DHT22;9213;50.858;3.964;2022-12-24T04:35:00;14.10;64.30
18177;DHT22;9213;50.858;3.964;2022-12-24T04:37:27;14.10;64.30
18177;DHT22;9213;50.858;3.964;2022-12-24T04:39:55;14.00;64.30
18177;DHT22;9213;50.858;3.964;2022-12-24T04:42:22;13.90;64.40
18177;DHT22;9213;50.858;3.964;2022-12-24T04:44:49;13.90;64.40
18177;DHT22;9213;50.858;3.964;2022-12-24T04:47:16;13.90;64.60
18177;DHT22;9213;50.858;3.964;2022-12-24T04:49:43;13.80;64.60
18177;DHT22;9213;50.858;3.964;2022-12-24T04:52:09;13.80;64.70
18177;DHT22;9213;50.858;3.964;2022-12-24T04:54:36;13.70;64.70
18177;DHT22;9213;50.858;3.964;2022-12-24T04:57:05;13.70;64.80
18177;DHT22;9213;50.858;3.964;2022-12-24T04:59:31;13.70;65.00
18177;DHT22;9213;50.858;3.964;2022-12-24T05:01:58;13.70;65.10
18177;DHT22;9213;50.858;3.964;2022-12-24T05:04:25;13.70;65.10
18177;DHT22;9213;50.858;3.964;2022-12-24T05:06:52;13.60;65.10
18177;DHT22;9213;50.858;3.964;2022-12-24T05:09:19;13.70;65.30
18177;DHT22;9213;50.858;3.964;2022-12-24T05:11:46;13.70;65.30
18177;DHT22;9213;50.858;3.964;2022-12-24T05:14:14;13.70;65.20
18177;DHT22;9213;50.858;3.964;2022-12-24T05:16:41;13.80;65.10
18177;DHT22;9213;50.858;3.964;2022-12-24T05:19:09;13.70;65.00
18177;DHT22;9213;50.858;3.964;2022-12-24T05:21:36;13.80;65.00
18177;DHT22;9213;50.858;3.964;2022-12-24T05:24:03;13.70;65.00
18177;DHT22;9213;50.858;3.964;2022-12-24T05:26:49;13.70;65.10
18177;DHT22;9213;50.858;3.964;2022-12-24T05:29:18;13.80;65.10
18177;DHT22;9213;50.858;3.964;2022-12-24T05:31:45;13.80;65.10
18177;DHT22;9213;50.858;3.964;2022-12-24T05:34:13;13.80;65.20
18177;DHT22;9213;50.858;3.964;2022-12-24T05:36:41;13.90;65.30
18177;DHT22;9213;50.858;3.964;2022-12-24T05:39:10;13.90;65.30
18177;DHT22;9213;50.858;3.964;2022-12-24T05:41:38;13.90;65.30
18177;DHT22;9213;50.858;3.964;2022-12-24T05:44:05;13.90;65.20
18177;DHT22;9213;50.858;3.964;2022-12-24T05:46:33;13.90;65.10
18177;DHT22;9213;50.858;3.964;2022-12-24T05:49:00;14.00;65.10
18177;DHT22;9213;50.858;3.964;2022-12-24T05:51:27;14.00;65.00
18177;DHT22;9213;50.858;3.964;2022-12-24T05:53:54;14.00;65.00
18177;DHT22;9213;50.858;3.964;2022-12-24T05:56:22;14.00;65.00
18177;DHT22;9213;50.858;3.964;2022-12-24T05:58:50;14.00;65.10
18177;DHT22;9213;50.858;3.964;2022-12-24T06:01:18;14.00;65.20
18177;DHT22;9213;50.858;3.964;2022-12-24T06:03:47;14.00;65.20
18177;DHT22;9213;50.858;3.964;2022-12-24T06:06:16;14.00;65.10
18177;DHT22;9213;50.858;3.964;2022-12-24T06:08:46;14.00;65.00
18177;DHT22;9213;50.858;3.964;2022-12-24T06:11:15;14.00;65.00
18177;DHT22;9213;50.858;3.964;2022-12-24T06:13:42;13.90;65.10
18177;DHT22;9213;50.858;3.964;2022-12-24T06:16:12;13.90;65.20
18177;DHT22;9213;50.858;3.964;2022-12-24T06:18:39;13.90;65.30
18177;DHT22;9213;50.858;3.964;2022-12-24T06:21:07;13.90;65.40
18177;DHT22;9213;50.858;3.964;2022-12-24T06:23:36;13.90;65.40
18177;DHT22;9213;50.858;3.964;2022-12-24T06:26:05;13.90;65.40
18177;DHT22;9213;50.858;3.964;2022-12-24T06:28:35;13.90;65.40
18177;DHT22;9213;50.858;3.964;2022-12-24T06:31:03;13.90;65.50
18177;DHT22;9213;50.858;3.964;2022-12-24T06:33:30;13.90;65.50
18177;DHT22;9213;50.858;3.964;2022-12-24T06:35:58;13.90;65.40
18177;DHT22;9213;50.858;3.964;2022-12-24T06:38:28;13.90;65.40
18177;DHT22;9213;50.858;3.964;2022-12-24T06:40:55;14.00;65.40
18177;DHT22;9213;50.858;3.964;2022-12-24T06:43:22;14.00;65.30
18177;DHT22;9213;50.858;3.964;2022-12-24T06:45:48;14.00;65.20
18177;DHT22;9213;50.858;3.964;2022-12-24T06:48:15;14.10;65.20
18177;DHT22;9213;50.858;3.964;2022-12-24T06:50:42;14.00;65.00
18177;DHT22;9213;50.858;3.964;2022-12-24T06:53:10;14.10;65.00
18177;DHT22;9213;50.858;3.964;2022-12-24T06:55:38;14.10;65.10
18177;DHT22;9213;50.858;3.964;2022-12-24T06:58:05;14.10;65.00
18177;DHT22;9213;50.858;3.964;2022-12-24T07:00:33;14.10;65.00
18177;DHT22;9213;50.858;3.964;2022-12-24T07:03:00;14.00;64.80
18177;DHT22;9213;50.858;3.964;2022-12-24T07:05:28;14.00;64.80
18177;DHT22;9213;50.858;3.964;2022-12-24T07:07:55;14.00;64.70
18177;DHT22;9213;50.858;3.964;2022-12-24T07:10:22;14.00;64.60
18177;DHT22;9213;50.858;3.964;2022-12-24T07:12:50;14.00;64.60
18177;DHT22;9213;50.858;3.964;2022-12-24T07:15:17;14.00;64.80
18177;DHT22;9213;50.858;3.964;2022-12-24T07:17:44;14.00;64.70
18177;DHT22;9213;50.858;3.964;2022-12-24T07:20:13;13.90;64.70
18177;DHT22;9213;50.858;3.964;2022-12-24T07:22:40;13.90;64.60
18177;DHT22;9213;50.858;3.964;2022-12-24T07:25:08;13.90;64.60
18177;DHT22;9213;50.858;3.964;2022-12-24T07:27:35;13.90;64.60
18177;DHT22;9213;50.858;3.964;2022-12-24T07:30:04;13.80;64.50
18177;DHT22;9213;50.858;3.964;2022-12-24T07:32:31;13.80;64.60
18177;DHT22;9213;50.858;3.964;2022-12-24T07:34:58;13.70;64.60
18177;DHT22;9213;50.858;3.964;2022-12-24T07:37:25;13.70;64.60
18177;DHT22;9213;50.858;3.964;2022-12-24T07:39:52;13.70;64.60
18177;DHT22;9213;50.858;3.964;2022-12-24T07:42:19;13.60;64.60
18177;DHT22;9213;50.858;3.964;2022-12-24T07:44:46;13.60;64.70
18177;DHT22;9213;50.858;3.964;2022-12-24T07:47:14;13.60;64.80
18177;DHT22;9213;50.858;3.964;2022-12-24T07:49:41;13.50;65.00
18177;DHT22;9213;50.858;3.964;2022-12-24T07:52:08;13.50;65.30
18177;DHT22;9213;50.858;3.964;2022-12-24T07:54:35;13.60;65.40
18177;DHT22;9213;50.858;3.964;2022-12-24T07:57:02;13.60;65.30
18177;DHT22;9213;50.858;3.964;2022-12-24T07:59:29;13.60;65.20
18177;DHT22;9213;50.858;3.964;2022-12-24T08:01:56;13.60;65.10
18177;DHT22;9213;50.858;3.964;2022-12-24T08:04:24;13.70;65.10
18177;DHT22;9213;50.858;3.964;2022-12-24T08:06:51;13.70;65.90
18177;DHT22;9213;50.858;3.964;2022-12-24T08:09:18;13.70;65.00
18177;DHT22;9213;50.858;3.964;2022-12-24T08:11:45;13.70;65.00
18177;DHT22;9213;50.858;3.964;2022-12-24T08:14:11;13.70;64.90
18177;DHT22;9213;50.858;3.964;2022-12-24T08:16:38;13.70;64.80
18177;DHT22;9213;50.858;3.964;2022-12-24T08:19:05;13.70;64.80
18177;DHT22;9213;50.858;3.964;2022-12-24T08:21:33;13.70;64.70
18177;DHT22;9213;50.858;3.964;2022-12-24T08:24:00;13.80;64.70
18177;DHT22;9213;50.858;3.964;2022-12-24T08:26:27;13.80;64.70
18177;DHT22;9213;50.858;3.964;2022-12-24T08:28:55;13.80;64.60
18177;DHT22;9213;50.858;3.964;2022-12-24T08:31:22;13.80;64.60
18177;DHT22;9213;50.858;3.964;2022-12-24T08:33:49;13.80;64.70
18177;DHT22;9213;50.858;3.964;2022-12-24T08:36:16;13.80;64.60
18177;DHT22;9213;50.858;3.964;2022-12-24T08:38:44;13.80;64.60
18177;DHT22;9213;50.858;3.964;2022-12-24T08:41:11;13.80;64.60
18177;DHT22;9213;50.858;3.964;2022-12-24T08:43:38;13.80;64.60
18177;DHT22;9213;50.858;3.964;2022-12-24T08:46:05;13.80;64.50
18177;DHT22;9213;50.858;3.964;2022-12-24T08:48:32;13.90;64.60
18177;DHT22;9213;50.858;3.964;2022-12-24T08:50:59;13.90;64.50
18177;DHT22;9213;50.858;3.964;2022-12-24T08:53:26;14.00;64.50
18177;DHT22;9213;50.858;3.964;2022-12-24T08:56:02;14.00;64.40
18177;DHT22;9213;50.858;3.964;2022-12-24T08:58:29;14.10;64.60
18177;DHT22;9213;50.858;3.964;2022-12-24T09:00:56;14.10;64.30
18177;DHT22;9213;50.858;3.964;2022-12-24T09:03:23;14.20;64.10
18177;DHT22;9213;50.858;3.964;2022-12-24T09:05:50;14.20;64.00
18177;DHT22;9213;50.858;3.964;2022-12-24T09:08:18;14.20;63.90
18177;DHT22;9213;50.858;3.964;2022-12-24T09:10:45;14.20;64.00
18177;DHT22;9213;50.858;3.964;2022-12-24T09:13:14;14.30;64.00
18177;DHT22;9213;50.858;3.964;2022-12-24T09:15:41;14.30;63.90
18177;DHT22;9213;50.858;3.964;2022-12-24T09:18:07;14.30;63.70
18177;DHT22;9213;50.858;3.964;2022-12-24T09:20:35;14.30;63.60
18177;DHT22;9213;50.858;3.964;2022-12-24T09:23:02;14.40;63.60
18177;DHT22;9213;50.858;3.964;2022-12-24T09:25:29;14.40;63.60
18177;DHT22;9213;50.858;3.964;2022-12-24T09:27:55;14.50;63.80
18177;DHT22;9213;50.858;3.964;2022-12-24T09:30:24;14.50;63.50
18177;DHT22;9213;50.858;3.964;2022-12-24T09:32:51;14.60;63.20
18177;DHT22;9213;50.858;3.964;2022-12-24T09:35:17;14.60;62.80
18177;DHT22;9213;50.858;3.964;2022-12-24T09:37:44;14.70;62.80
18177;DHT22;9213;50.858;3.964;2022-12-24T09:40:21;14.70;62.70
18177;DHT22;9213;50.858;3.964;2022-12-24T09:42:51;14.70;62.80
18177;DHT22;9213;50.858;3.964;2022-12-24T09:45:22;14.70;62.60
18177;DHT22;9213;50.858;3.964;2022-12-24T09:47:54;14.70;62.60
18177;DHT22;9213;50.858;3.964;2022-12-24T09:50:30;14.70;62.70
18177;DHT22;9213;50.858;3.964;2022-12-24T09:53:02;14.60;62.60
18177;DHT22;9213;50.858;3.964;2022-12-24T09:55:32;14.60;62.60
18177;DHT22;9213;50.858;3.964;2022-12-24T09:58:01;14.60;62.80
18177;DHT22;9213;50.858;3.964;2022-12-24T10:00:34;14.70;63.00
18177;DHT22;9213;50.858;3.964;2022-12-24T10:03:11;14.70;63.10
18177;DHT22;9213;50.858;3.964;2022-12-24T10:05:44;14.80;63.00
18177;DHT22;9213;50.858;3.964;2022-12-24T10:08:17;14.90;62.90
18177;DHT22;9213;50.858;3.964;2022-12-24T10:10:51;14.90;62.70
18177;DHT22;9213;50.858;3.964;2022-12-24T10:13:29;15.00;62.70
18177;DHT22;9213;50.858;3.964;2022-12-24T10:16:01;15.10;62.70
18177;DHT22;9213;50.858;3.964;2022-12-24T10:18:37;15.20;62.40
18177;DHT22;9213;50.858;3.964;2022-12-24T10:21:11;15.30;62.20
18177;DHT22;9213;50.858;3.964;2022-12-24T10:23:42;15.40;61.90
18177;DHT22;9213;50.858;3.964;2022-12-24T10:26:15;15.40;61.60
18177;DHT22;9213;50.858;3.964;2022-12-24T10:28:49;15.40;61.50
18177;DHT22;9213;50.858;3.964;2022-12-24T10:31:18;15.50;61.60
18177;DHT22;9213;50.858;3.964;2022-12-24T10:33:54;15.50;61.40
18177;DHT22;9213;50.858;3.964;2022-12-24T10:36:25;15.50;61.40
18177;DHT22;9213;50.858;3.964;2022-12-24T10:38:53;15.50;61.40
18177;DHT22;9213;50.858;3.964;2022-12-24T10:41:21;15.50;61.40
18177;DHT22;9213;50.858;3.964;2022-12-24T10:43:49;15.60;61.30
18177;DHT22;9213;50.858;3.964;2022-12-24T10:46:18;15.60;61.00
18177;DHT22;9213;50.858;3.964;2022-12-24T10:48:52;15.60;60.90
18177;DHT22;9213;50.858;3.964;2022-12-24T10:51:26;15.50;61.00
18177;DHT22;9213;50.858;3.964;2022-12-24T10:53:59;15.60;61.20
18177;DHT22;9213;50.858;3.964;2022-12-24T10:56:27;15.60;61.20
18177;DHT22;9213;50.858;3.964;2022-12-24T10:58:54;15.60;61.00
18177;DHT22;9213;50.858;3.964;2022-12-24T11:01:42;15.60;61.00
18177;DHT22;9213;50.858;3.964;2022-12-24T11:04:15;15.70;61.50
18177;DHT22;9213;50.858;3.964;2022-12-24T11:06:52;15.70;61.30
18177;DHT22;9213;50.858;3.964;2022-12-24T11:09:21;15.70;61.30
18177;DHT22;9213;50.858;3.964;2022-12-24T11:11:48;15.70;61.10
18177;DHT22;9213;50.858;3.964;2022-12-24T11:14:17;15.80;61.00
18177;DHT22;9213;50.858;3.964;2022-12-24T11:16:51;15.80;60.80
18177;DHT22;9213;50.858;3.964;2022-12-24T11:19:30;15.90;60.70
18177;DHT22;9213;50.858;3.964;2022-12-24T11:22:01;15.90;60.70
18177;DHT22;9213;50.858;3.964;2022-12-24T11:24:30;15.90;60.40
18177;DHT22;9213;50.858;3.964;2022-12-24T11:27:32;15.90;60.30
18177;DHT22;9213;50.858;3.964;2022-12-24T11:30:24;15.90;60.50
18177;DHT22;9213;50.858;3.964;2022-12-24T11:33:19;15.90;60.70
18177;DHT22;9213;50.858;3.964;2022-12-24T11:35:50;15.90;61.00
18177;DHT22;9213;50.858;3.964;2022-12-24T11:38:20;15.90;60.70
18177;DHT22;9213;50.858;3.964;2022-12-24T11:40:49;15.90;60.80
18177;DHT22;9213;50.858;3.964;2022-12-24T11:43:18;16.00;60.80
18177;DHT22;9213;50.858;3.964;2022-12-24T11:45:50;16.10;60.70
18177;DHT22;9213;50.858;3.964;2022-12-24T11:48:27;16.20;60.60
18177;DHT22;9213;50.858;3.964;2022-12-24T11:50:56;16.30;60.60
18177;DHT22;9213;50.858;3.964;2022-12-24T11:53:27;16.40;60.00
18177;DHT22;9213;50.858;3.964;2022-12-24T11:55:58;16.60;59.80
18177;DHT22;9213;50.858;3.964;2022-12-24T11:58:29;16.60;59.30
18177;DHT22;9213;50.858;3.964;2022-12-24T12:01:03;16.70;59.10
18177;DHT22;9213;50.858;3.964;2022-12-24T12:03:37;16.80;58.90
18177;DHT22;9213;50.858;3.964;2022-12-24T12:06:22;16.90;58.80
18177;DHT22;9213;50.858;3.964;2022-12-24T12:08:52;16.90;58.60
18177;DHT22;9213;50.858;3.964;2022-12-24T12:11:21;16.90;58.50
18177;DHT22;9213;50.858;3.964;2022-12-24T12:13:50;16.90;58.30
18177;DHT22;9213;50.858;3.964;2022-12-24T12:16:22;16.90;58.20
18177;DHT22;9213;50.858;3.964;2022-12-24T12:18:54;16.90;58.20
18177;DHT22;9213;50.858;3.964;2022-12-24T12:21:26;16.80;58.10
18177;DHT22;9213;50.858;3.964;2022-12-24T12:23:56;16.80;58.30
18177;DHT22;9213;50.858;3.964;2022-12-24T12:26:26;16.70;58.50
18177;DHT22;9213;50.858;3.964;2022-12-24T12:28:57;16.70;58.50
18177;DHT22;9213;50.858;3.964;2022-12-24T12:31:27;16.70;58.50
18177;DHT22;9213;50.858;3.964;2022-12-24T12:34:01;16.70;58.60
18177;DHT22;9213;50.858;3.964;2022-12-24T12:36:31;16.80;58.60
18177;DHT22;9213;50.858;3.964;2022-12-24T12:38:59;16.80;58.60
18177;DHT22;9213;50.858;3.964;2022-12-24T12:41:37;16.90;58.60
18177;DHT22;9213;50.858;3.964;2022-12-24T12:47:31;17.00;58.60
18177;DHT22;9213;50.858;3.964;2022-12-24T12:50:08;17.10;58.20
18177;DHT22;9213;50.858;3.964;2022-12-24T12:52:48;17.10;58.10
18177;DHT22;9213;50.858;3.964;2022-12-24T12:55:26;17.10;58.00
18177;DHT22;9213;50.858;3.964;2022-12-24T12:57:59;17.10;57.80
18177;DHT22;9213;50.858;3.964;2022-12-24T13:00:28;17.10;57.70
18177;DHT22;9213;50.858;3.964;2022-12-24T13:03:17;17.10;58.20
18177;DHT22;9213;50.858;3.964;2022-12-24T13:06:10;17.20;57.70
18177;DHT22;9213;50.858;3.964;2022-12-24T13:09:05;17.20;57.70
18177;DHT22;9213;50.858;3.964;2022-12-24T13:11:49;17.20;57.90
18177;DHT22;9213;50.858;3.964;2022-12-24T13:14:33;17.20;57.50
18177;DHT22;9213;50.858;3.964;2022-12-24T13:17:23;17.20;57.30
18177;DHT22;9213;50.858;3.964;2022-12-24T13:20:09;17.30;57.40
18177;DHT22;9213;50.858;3.964;2022-12-24T13:22:39;17.30;57.30
18177;DHT22;9213;50.858;3.964;2022-12-24T13:25:17;17.30;57.10
18177;DHT22;9213;50.858;3.964;2022-12-24T13:27:45;17.30;57.10
18177;DHT22;9213;50.858;3.964;2022-12-24T13:30:37;17.30;57.00
18177;DHT22;9213;50.858;3.964;2022-12-24T13:33:06;17.40;57.30
18177;DHT22;9213;50.858;3.964;2022-12-24T13:35:36;17.40;56.80
18177;DHT22;9213;50.858;3.964;2022-12-24T13:38:34;17.30;56.80
18177;DHT22;9213;50.858;3.964;2022-12-24T13:44:29;17.40;57.20
18177;DHT22;9213;50.858;3.964;2022-12-24T13:47:04;17.30;56.70
18177;DHT22;9213;50.858;3.964;2022-12-24T13:49:44;17.30;56.70
18177;DHT22;9213;50.858;3.964;2022-12-24T13:52:18;17.30;56.70
18177;DHT22;9213;50.858;3.964;2022-12-24T13:55:01;17.20;56.60
18177;DHT22;9213;50.858;3.964;2022-12-24T13:57:37;17.20;56.50
18177;DHT22;9213;50.858;3.964;2022-12-24T14:00:17;17.20;56.50
18177;DHT22;9213;50.858;3.964;2022-12-24T14:02:50;17.10;56.40
18177;DHT22;9213;50.858;3.964;2022-12-24T14:05:22;17.10;56.60
18177;DHT22;9213;50.858;3.964;2022-12-24T14:07:52;17.00;56.70
18177;DHT22;9213;50.858;3.964;2022-12-24T14:10:24;17.00;56.70
18177;DHT22;9213;50.858;3.964;2022-12-24T14:12:52;17.00;56.80
18177;DHT22;9213;50.858;3.964;2022-12-24T14:15:45;17.10;56.80
18177;DHT22;9213;50.858;3.964;2022-12-24T14:18:22;17.10;57.10
18177;DHT22;9213;50.858;3.964;2022-12-24T14:20:52;17.10;56.80
18177;DHT22;9213;50.858;3.964;2022-12-24T14:23:35;17.10;56.90
18177;DHT22;9213;50.858;3.964;2022-12-24T14:26:11;17.20;57.00
18177;DHT22;9213;50.858;3.964;2022-12-24T14:28:42;17.10;56.80
18177;DHT22;9213;50.858;3.964;2022-12-24T14:31:13;17.10;56.70
18177;DHT22;9213;50.858;3.964;2022-12-24T14:33:41;17.00;56.90
18177;DHT22;9213;50.858;3.964;2022-12-24T14:36:08;17.00;56.90
18177;DHT22;9213;50.858;3.964;2022-12-24T14:38:36;17.00;56.90
18177;DHT22;9213;50.858;3.964;2022-12-24T14:41:12;16.90;56.80
18177;DHT22;9213;50.858;3.964;2022-12-24T14:43:50;16.80;56.90
18177;DHT22;9213;50.858;3.964;2022-12-24T14:46:23;16.70;57.10
18177;DHT22;9213;50.858;3.964;2022-12-24T14:48:53;16.70;57.20
18177;DHT22;9213;50.858;3.964;2022-12-24T14:51:27;16.60;57.40
18177;DHT22;9213;50.858;3.964;2022-12-24T14:54:09;16.50;57.60
18177;DHT22;9213;50.858;3.964;2022-12-24T14:56:41;16.40;57.70
18177;DHT22;9213;50.858;3.964;2022-12-24T14:59:14;16.30;57.80
18177;DHT22;9213;50.858;3.964;2022-12-24T15:01:42;16.30;58.20
18177;DHT22;9213;50.858;3.964;2022-12-24T15:04:15;16.20;58.20
18177;DHT22;9213;50.858;3.964;2022-12-24T15:06:44;16.10;58.50
18177;DHT22;9213;50.858;3.964;2022-12-24T15:09:17;16.00;58.50
18177;DHT22;9213;50.858;3.964;2022-12-24T15:11:48;16.00;58.60
18177;DHT22;9213;50.858;3.964;2022-12-24T15:14:16;15.90;58.80
18177;DHT22;9213;50.858;3.964;2022-12-24T15:16:51;15.80;58.80
18177;DHT22;9213;50.858;3.964;2022-12-24T15:19:21;15.80;58.90
18177;DHT22;9213;50.858;3.964;2022-12-24T15:21:49;15.80;58.90
18177;DHT22;9213;50.858;3.964;2022-12-24T15:24:24;15.80;58.90
18177;DHT22;9213;50.858;3.964;2022-12-24T15:26:54;15.80;59.10
18177;DHT22;9213;50.858;3.964;2022-12-24T15:29:23;15.70;59.10
18177;DHT22;9213;50.858;3.964;2022-12-24T15:31:56;15.60;59.10
18177;DHT22;9213;50.858;3.964;2022-12-24T15:34:26;15.60;59.20
18177;DHT22;9213;50.858;3.964;2022-12-24T15:37:00;15.50;59.20
18177;DHT22;9213;50.858;3.964;2022-12-24T15:39:28;15.50;59.40
18177;DHT22;9213;50.858;3.964;2022-12-24T15:41:57;15.40;59.30
18177;DHT22;9213;50.858;3.964;2022-12-24T15:44:41;15.40;59.40
18177;DHT22;9213;50.858;3.964;2022-12-24T15:47:15;15.30;59.40
18177;DHT22;9213;50.858;3.964;2022-12-24T15:49:45;15.30;59.60
18177;DHT22;9213;50.858;3.964;2022-12-24T15:52:16;15.20;59.40
18177;DHT22;9213;50.858;3.964;2022-12-24T15:54:45;15.10;59.60
18177;DHT22;9213;50.858;3.964;2022-12-24T15:57:21;15.10;59.60
18177;DHT22;9213;50.858;3.964;2022-12-24T15:59:50;15.00;59.80
18177;DHT22;9213;50.858;3.964;2022-12-24T16:02:35;14.90;59.80
18177;DHT22;9213;50.858;3.964;2022-12-24T16:05:28;14.90;60.10
18177;DHT22;9213;50.858;3.964;2022-12-24T16:08:21;14.90;60.20
18177;DHT22;9213;50.858;3.964;2022-12-24T16:10:50;14.80;60.30
18177;DHT22;9213;50.858;3.964;2022-12-24T16:13:22;14.70;60.40
18177;DHT22;9213;50.858;3.964;2022-12-24T16:15:52;14.70;60.60